Time;durP1;ratioP1;P1;durP2;ratioP2;P2;SDS_P1;SDS_P2;PMS_P1;PMS_P2;Temp;Humidity;BMP_temperature;BMP_pressure;BME280_temperature;BME280_humidity;BME280_pressure;Samples;Min_cycle;Max_cycle;Signal;HPM_P1;HPM_P2
2024/03/31 00:00:33;;;;;;;19.83;13.90;;;8.60;99.90;;;;;;4998040;28;20390;-72
2024/03/31 00:02:59;;;;;;;21.80;13.60;;;8.60;99.90;;;;;;4996566;28;20504;-69
2024/03/31 00:05:24;;;;;;;21.97;14.83;;;8.60;99.90;;;;;;4994143;28;20430;-71
2024/03/31 00:07:50;;;;;;;19.77;13.50;;;8.70;99.90;;;;;;4994470;28;20394;-70
2024/03/31 00:10:15;;;;;;;23.67;13.63;;;8.70;99.90;;;;;;4995343;28;20458;-70
2024/03/31 00:12:44;;;;;;;21.70;14.63;;;8.90;99.90;;;;;;4995536;28;20881;-70
2024/03/31 00:15:10;;;;;;;22.42;13.57;;;9.10;99.90;;;;;;4993840;28;20481;-72
2024/03/31 00:17:36;;;;;;;22.63;14.82;;;9.10;99.90;;;;;;4994099;28;20429;-71
2024/03/31 00:20:02;;;;;;;18.00;12.77;;;8.90;99.90;;;;;;4978016;28;20410;-70
2024/03/31 00:22:28;;;;;;;22.90;14.18;;;8.70;99.90;;;;;;4993595;28;20789;-71
2024/03/31 00:24:53;;;;;;;22.53;14.63;;;8.70;99.90;;;;;;4993738;28;20395;-71
2024/03/31 00:27:19;;;;;;;19.40;14.40;;;8.60;99.90;;;;;;4994887;28;20378;-71
2024/03/31 00:29:44;;;;;;;23.00;14.07;;;8.60;99.90;;;;;;4992014;28;20866;-71
2024/03/31 00:32:10;;;;;;;20.30;13.93;;;8.90;99.90;;;;;;4991595;28;20719;-71
2024/03/31 00:34:36;;;;;;;25.25;16.50;;;9.10;99.90;;;;;;4992448;28;20395;-70
2024/03/31 00:37:02;;;;;;;24.13;17.27;;;8.90;99.90;;;;;;4991993;28;20389;-70
2024/03/31 00:39:27;;;;;;;33.90;18.43;;;8.70;99.90;;;;;;4991538;28;20529;-73
2024/03/31 00:41:55;;;;;;;26.77;18.73;;;8.70;99.90;;;;;;4991544;28;20430;-71
2024/03/31 00:44:20;;;;;;;35.80;21.10;;;8.60;99.90;;;;;;4991731;28;20418;-70
2024/03/31 00:46:46;;;;;;;29.27;18.05;;;8.50;99.90;;;;;;4991916;28;20390;-71
2024/03/31 00:49:11;;;;;;;25.70;17.73;;;8.50;99.90;;;;;;4991659;28;20382;-70
2024/03/31 00:51:37;;;;;;;28.83;19.33;;;8.60;99.90;;;;;;4991405;28;20398;-70
2024/03/31 00:54:03;;;;;;;32.63;19.95;;;8.50;99.90;;;;;;4974294;28;20394;-71
2024/03/31 00:56:28;;;;;;;26.85;18.77;;;8.50;99.90;;;;;;4991730;28;20755;-71
2024/03/31 00:58:55;;;;;;;28.75;19.83;;;8.60;99.90;;;;;;4991418;28;20397;-71
2024/03/31 01:01:21;;;;;;;28.75;20.17;;;8.50;99.90;;;;;;4991207;28;20497;-71
2024/03/31 01:03:47;;;;;;;29.47;19.60;;;8.50;99.90;;;;;;4974049;28;20485;-72
2024/03/31 01:06:20;;;;;;;28.60;18.57;;;8.50;99.90;;;;;;4991435;28;20390;-71
2024/03/31 01:08:48;;;;;;;28.15;19.08;;;8.50;99.90;;;;;;4991688;28;20389;-72
2024/03/31 01:11:15;;;;;;;31.03;19.00;;;8.50;99.90;;;;;;4994453;28;20897;-71
2024/03/31 01:13:41;;;;;;;30.35;18.98;;;8.70;99.90;;;;;;4996022;28;20521;-70
2024/03/31 01:16:07;;;;;;;28.63;19.07;;;8.70;99.90;;;;;;4995664;28;20477;-70
2024/03/31 01:18:33;;;;;;;33.88;21.30;;;8.60;99.90;;;;;;4995511;28;20390;-70
2024/03/31 01:20:59;;;;;;;26.23;19.27;;;8.70;99.90;;;;;;4977951;28;20398;-70
2024/03/31 01:23:50;;;;;;;29.83;18.88;;;8.90;99.90;;;;;;4995503;28;20459;-71
2024/03/31 01:26:16;;;;;;;31.35;19.90;;;8.90;99.90;;;;;;4994772;28;20415;-72
2024/03/31 01:28:41;;;;;;;29.17;19.50;;;8.80;99.90;;;;;;4977984;28;20478;-70
2024/03/31 01:31:07;;;;;;;29.85;19.98;;;8.60;99.90;;;;;;4978133;28;20386;-70
2024/03/31 01:33:32;;;;;;;32.33;21.50;;;8.50;99.90;;;;;;4996124;28;20401;-71
2024/03/31 01:35:59;;;;;;;30.77;20.87;;;8.50;99.90;;;;;;4996085;28;20398;-71
2024/03/31 01:38:25;;;;;;;33.50;21.73;;;8.40;99.90;;;;;;4995669;28;20470;-69
2024/03/31 01:40:51;;;;;;;32.92;23.17;;;8.40;99.90;;;;;;4995636;28;20465;-71
2024/03/31 01:43:16;;;;;;;32.30;22.90;;;8.50;99.90;;;;;;4995490;28;20441;-71
2024/03/31 01:45:42;;;;;;;35.63;22.90;;;8.50;99.90;;;;;;4995598;28;20896;-71
2024/03/31 01:48:07;;;;;;;28.93;20.93;;;8.60;99.90;;;;;;4995295;28;20561;-70
2024/03/31 01:50:33;;;;;;;33.83;21.27;;;8.60;99.90;;;;;;4995767;28;20391;-71
2024/03/31 01:52:58;;;;;;;31.17;22.20;;;8.50;99.90;;;;;;4995271;28;20386;-72
2024/03/31 01:55:24;;;;;;;34.10;23.02;;;8.50;99.90;;;;;;4994848;28;20456;-71
2024/03/31 01:57:49;;;;;;;34.53;23.65;;;8.50;99.90;;;;;;4977064;28;20392;-72
2024/03/31 02:00:15;;;;;;;33.73;22.43;;;8.50;99.90;;;;;;4995011;28;20473;-72
2024/03/31 02:02:41;;;;;;;33.67;23.60;;;8.70;99.90;;;;;;4994428;28;20417;-72
2024/03/31 02:05:06;;;;;;;30.92;21.85;;;8.60;99.90;;;;;;4994694;28;20386;-71
2024/03/31 02:07:32;;;;;;;29.37;20.20;;;8.90;99.90;;;;;;4994565;28;20425;-69
2024/03/31 02:09:57;;;;;;;31.87;21.77;;;9.20;98.00;;;;;;4994547;28;20448;-71
2024/03/31 02:12:23;;;;;;;28.97;21.87;;;9.20;93.20;;;;;;4994035;28;20401;-71
2024/03/31 02:14:48;;;;;;;33.70;22.13;;;8.90;96.00;;;;;;4994327;28;20402;-72
2024/03/31 02:17:14;;;;;;;30.57;21.17;;;8.70;99.10;;;;;;4994309;28;20539;-70
2024/03/31 02:19:39;;;;;;;32.55;21.80;;;8.70;99.90;;;;;;4994171;28;20430;-72
2024/03/31 02:22:05;;;;;;;36.75;25.08;;;8.70;99.90;;;;;;4993283;28;20470;-71
2024/03/31 02:24:30;;;;;;;32.88;21.48;;;8.60;99.90;;;;;;4994547;28;20395;-71
2024/03/31 02:26:56;;;;;;;33.03;21.43;;;8.60;99.90;;;;;;4994146;28;20391;-71
2024/03/31 02:29:23;;;;;;;30.47;21.60;;;8.60;99.90;;;;;;4994256;28;20386;-71
2024/03/31 02:31:49;;;;;;;32.70;21.45;;;8.60;99.90;;;;;;4976284;28;20441;-72
2024/03/31 02:34:14;;;;;;;31.00;21.48;;;8.60;99.90;;;;;;4994106;28;20390;-71
2024/03/31 02:36:40;;;;;;;31.00;21.63;;;8.60;99.90;;;;;;4993829;28;20412;-72
2024/03/31 02:39:06;;;;;;;36.60;23.08;;;8.60;99.90;;;;;;4994115;28;20422;-72
2024/03/31 02:41:32;;;;;;;31.40;22.20;;;8.60;99.90;;;;;;4993740;28;20390;-71
2024/03/31 02:43:57;;;;;;;34.47;22.17;;;8.60;99.90;;;;;;4994092;28;20496;-72
2024/03/31 02:46:23;;;;;;;31.50;21.80;;;8.60;99.90;;;;;;4993661;28;20426;-70
2024/03/31 02:48:49;;;;;;;30.73;21.43;;;8.60;99.90;;;;;;4995116;28;20778;-71
2024/03/31 02:51:14;;;;;;;31.47;21.70;;;8.70;99.90;;;;;;5006503;28;20410;-71
2024/03/31 02:53:40;;;;;;;29.83;20.93;;;8.70;99.90;;;;;;5008025;28;20394;-72
2024/03/31 02:56:05;;;;;;;29.03;20.10;;;8.80;99.90;;;;;;4995767;28;20813;-70
2024/03/31 02:58:31;;;;;;;30.73;21.37;;;9.10;99.90;;;;;;5004094;28;20543;-70
2024/03/31 03:01:06;;;;;;;31.23;21.60;;;9.00;99.50;;;;;;4993746;28;21013;-72
2024/03/31 03:03:33;;;;;;;29.88;21.20;;;9.00;99.90;;;;;;4994259;28;20776;-71
2024/03/31 03:05:59;;;;;;;30.52;21.42;;;9.00;99.90;;;;;;5002662;28;20384;-75
2024/03/31 03:08:24;;;;;;;31.02;22.85;;;9.00;99.80;;;;;;5012319;28;20776;-71
2024/03/31 03:10:54;;;;;;;33.30;22.75;;;9.10;99.70;;;;;;5015909;28;20380;-72
2024/03/31 03:13:20;;;;;;;35.03;23.67;;;9.10;99.10;;;;;;5020888;28;20395;-71
2024/03/31 03:15:45;;;;;;;27.73;20.08;;;9.10;99.20;;;;;;5024074;28;20763;-72
2024/03/31 03:18:15;;;;;;;27.75;20.58;;;9.10;99.10;;;;;;5026005;28;20427;-71
2024/03/31 03:20:41;;;;;;;34.63;21.30;;;9.40;94.60;;;;;;5029166;28;20721;-72
2024/03/31 03:23:07;;;;;;;31.07;21.30;;;9.30;94.70;;;;;;5030637;28;20448;-72
2024/03/31 03:25:32;;;;;;;35.78;22.25;;;9.30;95.60;;;;;;5027738;28;20453;-72
2024/03/31 03:27:58;;;;;;;33.20;22.05;;;9.40;93.80;;;;;;5025437;28;20396;-72
2024/03/31 03:30:24;;;;;;;34.27;20.60;;;9.40;92.80;;;;;;5013385;28;20384;-72
2024/03/31 03:32:53;;;;;;;31.90;21.10;;;9.40;93.40;;;;;;5011063;28;20389;-70
2024/03/31 03:35:19;;;;;;;32.15;20.02;;;9.40;93.40;;;;;;5013894;28;20385;-72
2024/03/31 03:37:45;;;;;;;27.20;19.30;;;9.40;94.10;;;;;;5012969;28;20477;-72
2024/03/31 03:40:11;;;;;;;27.45;18.90;;;9.50;93.70;;;;;;4995365;28;20422;-71
2024/03/31 03:42:40;;;;;;;28.88;18.98;;;9.60;92.50;;;;;;5013118;28;20416;-74
2024/03/31 03:45:06;;;;;;;27.10;18.67;;;9.60;91.60;;;;;;5013334;28;20385;-72
2024/03/31 03:47:32;;;;;;;27.77;17.70;;;9.60;93.20;;;;;;5012631;28;20393;-70
2024/03/31 03:49:57;;;;;;;34.30;20.02;;;9.60;93.40;;;;;;5012061;28;20389;-71
2024/03/31 03:52:23;;;;;;;29.50;18.40;;;9.60;94.10;;;;;;5011707;28;20535;-72
2024/03/31 03:54:49;;;;;;;28.55;19.05;;;9.60;94.50;;;;;;5012123;28;20401;-71
2024/03/31 03:57:14;;;;;;;26.23;18.60;;;9.60;95.50;;;;;;5011727;28;20392;-73
2024/03/31 03:59:40;;;;;;;27.77;18.40;;;9.70;94.00;;;;;;5012128;28;20416;-71
2024/03/31 04:02:05;;;;;;;25.53;18.67;;;9.70;93.20;;;;;;5011442;28;20393;-71
2024/03/31 04:04:31;;;;;;;31.03;18.30;;;9.70;93.40;;;;;;5011919;28;20483;-70
2024/03/31 04:06:56;;;;;;;28.43;17.83;;;9.70;93.60;;;;;;5011758;28;20381;-71
2024/03/31 04:09:23;;;;;;;31.17;19.23;;;9.60;95.00;;;;;;5011825;28;20511;-71
2024/03/31 04:11:48;;;;;;;30.50;17.70;;;9.60;96.30;;;;;;5011604;28;20400;-72
2024/03/31 04:14:14;;;;;;;28.15;17.63;;;9.50;97.20;;;;;;5011596;28;20385;-70
2024/03/31 04:16:39;;;;;;;26.13;18.00;;;9.60;97.40;;;;;;5011677;28;20403;-72
2024/03/31 04:19:05;;;;;;;31.92;17.90;;;9.60;97.70;;;;;;5011884;28;20389;-70
2024/03/31 04:21:30;;;;;;;22.77;16.10;;;9.60;98.60;;;;;;5011474;28;20911;-71
2024/03/31 04:23:57;;;;;;;22.13;15.47;;;9.60;98.60;;;;;;5011954;28;20401;-71
2024/03/31 04:26:25;;;;;;;25.05;15.02;;;9.60;98.70;;;;;;5012629;28;20393;-71
2024/03/31 04:28:54;;;;;;;26.38;15.70;;;9.70;98.10;;;;;;5012661;28;20880;-71
2024/03/31 04:31:20;;;;;;;19.77;11.90;;;9.70;99.20;;;;;;5012260;28;20487;-71
2024/03/31 04:33:46;;;;;;;21.80;12.97;;;9.70;98.90;;;;;;5013194;28;20456;-71
2024/03/31 04:36:12;;;;;;;17.20;9.93;;;9.80;99.20;;;;;;5012471;28;20840;-71
2024/03/31 04:38:38;;;;;;;18.17;9.95;;;9.80;98.80;;;;;;5012193;28;20388;-71
2024/03/31 04:41:03;;;;;;;18.38;9.20;;;9.90;98.30;;;;;;5011414;28;20721;-70
2024/03/31 04:43:29;;;;;;;20.35;9.52;;;9.90;97.50;;;;;;5011298;28;20408;-72
2024/03/31 04:46:08;;;;;;;19.77;8.23;;;9.90;97.70;;;;;;5011382;28;20396;-72
2024/03/31 04:48:35;;;;;;;20.20;9.23;;;10.00;96.00;;;;;;5011066;28;20377;-71
2024/03/31 04:51:07;;;;;;;16.63;7.50;;;10.00;97.10;;;;;;5010995;28;20492;-71
2024/03/31 04:53:35;;;;;;;19.10;8.60;;;9.90;97.60;;;;;;5011342;28;20393;-72
2024/03/31 04:56:01;;;;;;;19.38;7.28;;;10.10;96.40;;;;;;5011373;28;20895;-71
2024/03/31 04:58:27;;;;;;;16.73;8.05;;;10.10;97.20;;;;;;5011086;28;20399;-72
2024/03/31 05:00:53;;;;;;;16.85;7.50;;;10.00;98.50;;;;;;5010778;28;20401;-72
2024/03/31 05:03:19;;;;;;;25.33;11.47;;;10.10;97.30;;;;;;5010942;28;20470;-71
2024/03/31 05:05:45;;;;;;;27.60;11.60;;;10.20;97.80;;;;;;5011102;28;20465;-71
2024/03/31 05:08:10;;;;;;;18.80;8.73;;;10.30;96.30;;;;;;5010937;28;20445;-72
2024/03/31 05:10:36;;;;;;;24.92;10.32;;;10.40;94.50;;;;;;5011018;28;20385;-72
2024/03/31 05:13:02;;;;;;;20.52;8.20;;;10.30;96.20;;;;;;5010672;28;20380;-71
2024/03/31 05:15:28;;;;;;;26.63;8.33;;;10.30;97.50;;;;;;5010749;28;20902;-71
2024/03/31 05:17:53;;;;;;;21.77;7.73;;;10.40;95.90;;;;;;5010870;28;20408;-70
2024/03/31 05:20:21;;;;;;;20.00;7.20;;;10.40;95.90;;;;;;5010855;28;20415;-71
2024/03/31 05:22:46;;;;;;;23.92;8.10;;;10.30;96.20;;;;;;5010602;28;20415;-71
2024/03/31 05:25:12;;;;;;;21.15;8.85;;;10.30;98.60;;;;;;5010910;28;20384;-70
2024/03/31 05:27:38;;;;;;;23.08;8.07;;;10.30;98.10;;;;;;4992930;28;20377;-72
2024/03/31 05:30:03;;;;;;;23.65;8.18;;;10.30;98.60;;;;;;5011133;28;20395;-72
2024/03/31 05:32:29;;;;;;;18.90;7.53;;;10.40;97.70;;;;;;5010419;28;20906;-72
2024/03/31 05:34:54;;;;;;;17.98;7.00;;;10.30;99.00;;;;;;5010855;28;20891;-72
2024/03/31 05:37:20;;;;;;;24.60;8.68;;;10.40;97.90;;;;;;5010463;28;20399;-71
2024/03/31 05:39:45;;;;;;;23.87;8.20;;;10.40;97.70;;;;;;5010566;28;20388;-71
2024/03/31 05:42:11;;;;;;;24.10;8.30;;;10.40;96.70;;;;;;5010540;28;20400;-70
2024/03/31 05:44:37;;;;;;;18.43;5.93;;;10.50;96.60;;;;;;5011389;28;20451;-72
2024/03/31 05:47:02;;;;;;;20.70;6.47;;;10.50;96.30;;;;;;5012353;28;20769;-72
2024/03/31 05:49:28;;;;;;;19.90;8.18;;;10.50;96.90;;;;;;5012059;28;20389;-71
2024/03/31 05:51:53;;;;;;;17.60;6.00;;;10.50;96.60;;;;;;5025147;28;20533;-72
2024/03/31 05:54:19;;;;;;;20.48;7.28;;;10.60;95.90;;;;;;5025443;28;20756;-73
2024/03/31 05:56:44;;;;;;;19.42;7.90;;;10.50;96.30;;;;;;5012559;28;20393;-73
2024/03/31 05:59:10;;;;;;;12.87;6.30;;;10.70;95.20;;;;;;4996751;28;20484;-72
2024/03/31 06:01:35;;;;;;;14.40;5.40;;;10.70;94.50;;;;;;5013992;28;20472;-72
2024/03/31 06:04:01;;;;;;;17.60;7.00;;;10.80;93.40;;;;;;5014335;28;20412;-73
2024/03/31 06:06:27;;;;;;;26.23;7.00;;;10.80;92.80;;;;;;5014094;28;20388;-73
2024/03/31 06:08:52;;;;;;;23.38;9.18;;;10.90;93.20;;;;;;5013944;28;20392;-73
2024/03/31 06:11:18;;;;;;;23.15;8.13;;;11.00;91.70;;;;;;5013684;28;20381;-73
2024/03/31 06:13:44;;;;;;;23.92;8.35;;;11.00;91.30;;;;;;5013938;28;20419;-73
2024/03/31 06:16:10;;;;;;;11.10;5.30;;;11.10;89.40;;;;;;5013724;28;20393;-73
2024/03/31 06:18:36;;;;;;;19.20;6.97;;;11.00;90.10;;;;;;5013758;28;20396;-73
2024/03/31 06:21:08;;;;;;;17.08;5.05;;;11.00;92.20;;;;;;5013473;28;20521;-73
2024/03/31 06:23:35;;;;;;;12.90;4.78;;;10.90;92.70;;;;;;5013963;28;20443;-73
2024/03/31 06:26:02;;;;;;;15.52;5.97;;;10.90;92.70;;;;;;5014653;28;20380;-75
2024/03/31 06:28:28;;;;;;;17.05;5.72;;;10.90;93.90;;;;;;5014718;28;20419;-75
2024/03/31 06:30:54;;;;;;;15.95;4.80;;;10.90;91.80;;;;;;5013736;28;20759;-74
2024/03/31 06:33:19;;;;;;;15.07;4.53;;;10.90;91.90;;;;;;5013825;28;20400;-74
2024/03/31 06:35:45;;;;;;;19.20;5.70;;;10.80;93.10;;;;;;5013801;28;20420;-73
2024/03/31 06:38:11;;;;;;;18.57;5.27;;;12.80;94.90;;;;;;5013683;28;20424;-73
2024/03/31 06:40:37;;;;;;;17.30;5.25;;;10.60;94.30;;;;;;4996076;28;20431;-71
2024/03/31 06:43:03;;;;;;;15.20;5.03;;;10.60;95.30;;;;;;5013839;28;20408;-75
2024/03/31 06:45:29;;;;;;;19.30;5.13;;;10.70;94.50;;;;;;5014073;28;20404;-75
2024/03/31 06:47:55;;;;;;;14.27;5.30;;;10.60;95.50;;;;;;5013892;28;20884;-74
2024/03/31 06:50:21;;;;;;;18.55;5.40;;;10.50;96.30;;;;;;4996184;28;20381;-74
2024/03/31 06:52:47;;;;;;;12.95;5.43;;;10.50;96.60;;;;;;5013326;28;20419;-73
2024/03/31 06:55:13;;;;;;;14.70;4.75;;;10.50;97.10;;;;;;5013995;28;20910;-72
2024/03/31 06:57:39;;;;;;;13.40;4.50;;;10.50;97.80;;;;;;5013705;28;20405;-74
2024/03/31 07:00:06;;;;;;;14.10;3.92;;;10.50;97.70;;;;;;5013978;28;20389;-74
2024/03/31 07:02:31;;;;;;;12.05;4.07;;;10.50;98.00;;;;;;5013699;28;20412;-74
2024/03/31 07:04:57;;;;;;;13.15;5.30;;;10.60;98.90;;;;;;5013199;28;20776;-73
2024/03/31 07:07:22;;;;;;;18.80;4.95;;;10.80;97.60;;;;;;5013317;28;20467;-75
2024/03/31 07:09:48;;;;;;;11.43;4.40;;;11.00;95.10;;;;;;5013083;28;20494;-73
2024/03/31 07:12:13;;;;;;;17.30;4.57;;;11.00;94.10;;;;;;5012100;28;20795;-72
2024/03/31 07:14:39;;;;;;;10.00;4.20;;;11.20;92.70;;;;;;5012435;28;20385;-73
2024/03/31 07:17:05;;;;;;;12.40;4.70;;;11.20;90.70;;;;;;5012238;28;20483;-72
2024/03/31 07:19:30;;;;;;;11.90;4.68;;;11.30;89.70;;;;;;5012337;28;20418;-74
2024/03/31 07:21:56;;;;;;;14.90;4.37;;;11.20;89.80;;;;;;5011797;28;20854;-71
2024/03/31 07:24:22;;;;;;;14.93;5.00;;;11.40;89.30;;;;;;5012089;28;20481;-72
2024/03/31 07:26:47;;;;;;;17.20;4.70;;;11.40;88.70;;;;;;5012187;28;20443;-73
2024/03/31 07:29:13;;;;;;;16.15;4.90;;;11.50;88.70;;;;;;4994676;28;20895;-74
2024/03/31 07:31:38;;;;;;;14.23;4.70;;;11.70;87.40;;;;;;5011881;28;20827;-74
2024/03/31 07:34:04;;;;;;;19.40;5.37;;;11.80;85.40;;;;;;5012141;28;20879;-73
2024/03/31 07:36:30;;;;;;;20.77;5.65;;;12.10;84.00;;;;;;5012608;28;20475;-72
2024/03/31 07:38:56;;;;;;;20.73;5.20;;;12.30;81.70;;;;;;5011940;28;20479;-73
2024/03/31 07:41:21;;;;;;;16.65;5.25;;;12.50;79.30;;;;;;5011716;28;20388;-74
2024/03/31 07:43:47;;;;;;;17.50;6.20;;;12.70;76.60;;;;;;5012224;28;20417;-74
2024/03/31 07:46:13;;;;;;;20.17;6.10;;;13.00;74.70;;;;;;5011725;28;20455;-74
2024/03/31 07:48:38;;;;;;;16.50;5.10;;;13.40;68.60;;;;;;5011631;28;20385;-74
2024/03/31 07:51:04;;;;;;;12.50;4.33;;;13.50;67.80;;;;;;5011388;28;20391;-74
2024/03/31 07:53:30;;;;;;;13.03;5.07;;;13.50;65.20;;;;;;5012191;28;20496;-74
2024/03/31 07:56:00;;;;;;;21.25;5.80;;;13.50;64.10;;;;;;5012099;28;20779;-74
2024/03/31 07:58:26;;;;;;;18.97;5.63;;;13.60;63.30;;;;;;5012009;28;20393;-74
2024/03/31 08:00:52;;;;;;;12.17;4.87;;;13.60;64.40;;;;;;5011638;28;20387;-75
2024/03/31 08:03:18;;;;;;;16.83;5.93;;;13.70;63.20;;;;;;5011668;28;20911;-75
2024/03/31 08:05:43;;;;;;;14.35;4.70;;;13.90;61.30;;;;;;5011466;28;20392;-74
2024/03/31 08:08:12;;;;;;;10.30;3.75;;;14.10;59.60;;;;;;5010874;28;20494;-74
2024/03/31 08:10:38;;;;;;;14.00;3.95;;;14.30;58.80;;;;;;5012078;28;20863;-73
2024/03/31 08:13:03;;;;;;;11.80;3.20;;;14.40;57.60;;;;;;5011679;28;20400;-74
2024/03/31 08:15:29;;;;;;;15.97;4.20;;;14.60;56.30;;;;;;5011909;28;20876;-73
2024/03/31 08:17:54;;;;;;;15.20;5.10;;;14.70;55.50;;;;;;5060019;22;20429;-76
2024/03/31 08:20:20;;;;;;;15.57;4.03;;;14.70;54.60;;;;;;5050437;28;20392;-75
2024/03/31 08:22:46;;;;;;;12.80;4.55;;;14.80;53.20;;;;;;5049459;28;20409;-73
2024/03/31 08:25:11;;;;;;;10.43;3.60;;;14.80;52.30;;;;;;5061522;28;20395;-75
2024/03/31 08:27:37;;;;;;;7.63;3.10;;;14.80;53.30;;;;;;5040732;28;20521;-76
2024/03/31 08:30:03;;;;;;;17.55;4.10;;;14.80;53.20;;;;;;5035765;28;20373;-75
2024/03/31 08:32:28;;;;;;;17.10;4.55;;;14.70;53.60;;;;;;5048716;28;20767;-75
2024/03/31 08:34:54;;;;;;;10.70;3.77;;;14.70;53.30;;;;;;5031488;28;20387;-75
2024/03/31 08:37:19;;;;;;;19.23;8.60;;;14.80;52.80;;;;;;5037253;28;20401;-76
2024/03/31 08:39:46;;;;;;;14.30;3.33;;;15.00;52.50;;;;;;5039298;28;20927;-76
2024/03/31 08:42:21;;;;;;;18.88;5.10;;;15.00;51.60;;;;;;5039559;28;20393;-75
2024/03/31 08:44:48;;;;;;;15.52;3.83;;;14.90;51.00;;;;;;5048970;28;20388;-72
2024/03/31 08:47:20;;;;;;;18.02;4.10;;;14.80;51.90;;;;;;5050456;28;20382;-71
2024/03/31 08:49:46;;;;;;;18.88;6.95;;;14.80;51.40;;;;;;5039662;28;20398;-72
2024/03/31 08:52:13;;;;;;;12.40;3.60;;;15.00;51.70;;;;;;5036635;28;20385;-73
2024/03/31 08:54:40;;;;;;;21.23;6.50;;;15.00;50.70;;;;;;5031381;28;20387;-71
2024/03/31 08:57:05;;;;;;;19.50;4.25;;;15.10;52.00;;;;;;5041605;28;20385;-71
2024/03/31 08:59:31;;;;;;;15.07;4.72;;;15.20;50.30;;;;;;5045576;28;20447;-71
2024/03/31 09:01:59;;;;;;;15.18;3.60;;;15.40;49.40;;;;;;5048610;28;20393;-70
2024/03/31 09:04:24;;;;;;;12.50;3.60;;;15.50;46.50;;;;;;5037217;28;20526;-70
2024/03/31 09:06:51;;;;;;;13.50;3.73;;;15.60;44.50;;;;;;5045627;28;20464;-72
2024/03/31 09:09:22;;;;;;;14.90;4.38;;;15.90;44.40;;;;;;5049367;28;20879;-71
2024/03/31 09:11:48;;;;;;;13.90;5.57;;;16.00;44.40;;;;;;5036205;28;20606;-72
2024/03/31 09:14:14;;;;;;;13.20;3.47;;;16.00;42.90;;;;;;5037034;28;20389;-73
2024/03/31 09:16:47;;;;;;;11.20;3.20;;;16.00;40.20;;;;;;5039660;28;20446;-72
2024/03/31 09:19:13;;;;;;;13.32;2.67;;;16.10;41.10;;;;;;5047652;28;20405;-72
2024/03/31 09:21:48;;;;;;;16.40;3.00;;;16.10;40.70;;;;;;5044681;28;20895;-73
2024/03/31 09:24:14;;;;;;;13.50;3.50;;;16.20;40.80;;;;;;5030334;28;20489;-73
2024/03/31 09:26:40;;;;;;;18.52;3.35;;;16.40;39.80;;;;;;5030176;28;20774;-71
2024/03/31 09:29:06;;;;;;;16.15;3.67;;;16.60;38.10;;;;;;5030373;28;20382;-73
2024/03/31 09:31:32;;;;;;;17.67;3.20;;;16.50;38.40;;;;;;5032464;28;20754;-71
2024/03/31 09:33:59;;;;;;;12.83;2.83;;;16.50;38.30;;;;;;5042105;28;20389;-72
2024/03/31 09:36:25;;;;;;;15.50;3.33;;;16.50;38.20;;;;;;5058031;28;20396;-72
2024/03/31 09:38:50;;;;;;;10.65;3.10;;;16.60;36.70;;;;;;5055973;28;20390;-74
2024/03/31 09:41:18;;;;;;;21.93;4.40;;;16.60;36.80;;;;;;5040396;28;20504;-71
2024/03/31 09:43:44;;;;;;;14.43;2.87;;;16.50;36.80;;;;;;5032029;28;20489;-72
2024/03/31 09:46:12;;;;;;;13.23;2.75;;;16.60;35.80;;;;;;5040594;28;20744;-71
2024/03/31 09:48:43;;;;;;;10.10;3.33;;;16.50;37.00;;;;;;5031997;28;20478;-72
2024/03/31 09:51:15;;;;;;;9.45;3.10;;;16.60;37.20;;;;;;5031240;28;20390;-73
2024/03/31 09:53:47;;;;;;;14.83;3.37;;;16.70;34.60;;;;;;5039423;28;20379;-72
2024/03/31 09:56:21;;;;;;;14.48;3.78;;;16.70;35.00;;;;;;5035556;28;20461;-72
2024/03/31 09:58:51;;;;;;;14.40;3.40;;;16.80;34.00;;;;;;5049929;28;20394;-71
2024/03/31 10:01:19;;;;;;;10.68;2.90;;;16.80;34.10;;;;;;5045060;28;20406;-73
2024/03/31 10:03:49;;;;;;;13.70;2.70;;;16.70;33.80;;;;;;5046617;28;20500;-73
2024/03/31 10:06:16;;;;;;;13.73;3.20;;;16.70;34.00;;;;;;5041698;28;20430;-72
2024/03/31 10:08:42;;;;;;;14.10;2.80;;;16.80;33.70;;;;;;5043594;28;20391;-72
2024/03/31 10:11:10;;;;;;;12.40;2.80;;;16.90;33.20;;;;;;5051938;28;20523;-72
2024/03/31 10:13:38;;;;;;;9.70;2.65;;;16.90;33.30;;;;;;5052968;28;20394;-72
2024/03/31 10:16:05;;;;;;;12.50;3.33;;;17.00;32.30;;;;;;5048899;28;20393;-71
2024/03/31 10:18:32;;;;;;;13.98;2.58;;;17.20;31.90;;;;;;5044264;28;20401;-72
2024/03/31 10:20:58;;;;;;;17.20;2.60;;;17.40;30.80;;;;;;5052902;28;20386;-72
2024/03/31 10:23:25;;;;;;;15.30;3.08;;;17.50;28.70;;;;;;5039910;28;20411;-71
2024/03/31 10:25:52;;;;;;;13.13;2.35;;;17.60;28.70;;;;;;5033341;28;20383;-71
2024/03/31 10:28:19;;;;;;;9.25;2.50;;;17.70;28.10;;;;;;5032904;28;20379;-74
2024/03/31 10:30:44;;;;;;;12.02;3.00;;;17.80;27.00;;;;;;5033363;28;20379;-71
2024/03/31 10:33:10;;;;;;;11.97;2.87;;;17.80;25.90;;;;;;5033908;28;20959;-71
2024/03/31 10:35:38;;;;;;;11.98;2.50;;;17.80;25.60;;;;;;5041731;28;20415;-72
2024/03/31 10:38:04;;;;;;;9.60;2.63;;;17.90;25.60;;;;;;5038092;28;20413;-71
2024/03/31 10:40:31;;;;;;;16.65;2.60;;;17.90;25.80;;;;;;5036320;28;20966;-71
2024/03/31 10:42:57;;;;;;;10.73;2.30;;;17.90;24.10;;;;;;5052661;28;20409;-73
2024/03/31 10:45:26;;;;;;;10.35;2.58;;;17.90;24.80;;;;;;5049727;28;20444;-71
2024/03/31 10:47:52;;;;;;;10.93;2.95;;;17.80;25.30;;;;;;5034826;28;20402;-71
2024/03/31 10:50:25;;;;;;;19.52;2.90;;;17.90;25.50;;;;;;5032653;28;20387;-73
2024/03/31 10:52:52;;;;;;;13.25;2.75;;;18.20;24.00;;;;;;5032482;28;20388;-71
2024/03/31 10:55:19;;;;;;;10.55;2.85;;;18.20;23.60;;;;;;5032526;28;20950;-72
2024/03/31 10:57:52;;;;;;;12.03;3.10;;;18.30;22.20;;;;;;5038269;28;20898;-71
2024/03/31 11:00:18;;;;;;;11.25;2.22;;;18.40;22.20;;;;;;5038706;28;20383;-72
2024/03/31 11:02:48;;;;;;;9.82;2.30;;;18.40;20.90;;;;;;5033068;28;20399;-74
2024/03/31 11:05:17;;;;;;;15.48;3.63;;;18.40;20.30;;;;;;5052588;28;20480;-70
2024/03/31 11:07:45;;;;;;;13.82;2.50;;;18.20;20.90;;;;;;5052582;28;20385;-72
2024/03/31 11:10:13;;;;;;;15.75;3.60;;;18.30;20.60;;;;;;5052559;28;20377;-71
2024/03/31 11:12:43;;;;;;;10.37;2.53;;;18.40;21.00;;;;;;5052333;28;20435;-73
2024/03/31 11:15:09;;;;;;;13.33;2.53;;;18.60;19.60;;;;;;5049837;28;20739;-73
2024/03/31 11:17:35;;;;;;;14.10;2.30;;;18.50;19.70;;;;;;5032490;28;20429;-72
2024/03/31 11:20:02;;;;;;;10.20;2.67;;;18.50;19.70;;;;;;5032311;28;20785;-72
2024/03/31 11:22:30;;;;;;;12.65;2.42;;;18.70;18.90;;;;;;5022941;28;20393;-78
2024/03/31 11:24:56;;;;;;;6.07;2.38;;;19.40;16.90;;;;;;5024785;28;20749;-76
2024/03/31 11:27:22;;;;;;;14.82;2.70;;;19.70;17.00;;;;;;5037399;28;20441;-70
2024/03/31 11:29:48;;;;;;;12.60;2.30;;;20.10;17.30;;;;;;5047425;28;20385;-73
2024/03/31 11:32:18;;;;;;;12.80;3.07;;;20.60;14.90;;;;;;5050474;28;20389;-73
2024/03/31 11:34:48;;;;;;;14.27;2.85;;;20.90;14.60;;;;;;5039952;28;20421;-72
2024/03/31 11:37:14;;;;;;;8.77;1.85;;;21.10;14.10;;;;;;5032171;28;20391;-72
2024/03/31 11:39:40;;;;;;;17.05;2.60;;;21.20;13.80;;;;;;5045309;28;20396;-72
2024/03/31 11:42:06;;;;;;;11.13;2.70;;;21.20;13.10;;;;;;5053089;28;21015;-71
2024/03/31 11:44:33;;;;;;;12.10;2.92;;;20.90;13.90;;;;;;5046638;28;20415;-71
2024/03/31 11:47:02;;;;;;;17.75;3.58;;;20.80;14.40;;;;;;5017507;28;20954;-76
2024/03/31 11:49:29;;;;;;;10.45;2.80;;;20.70;15.10;;;;;;5046098;28;20390;-71
2024/03/31 11:51:56;;;;;;;14.90;3.20;;;20.70;13.90;;;;;;5033063;28;20402;-72
2024/03/31 11:54:21;;;;;;;12.35;3.05;;;20.60;14.40;;;;;;5031905;28;20387;-71
2024/03/31 11:56:47;;;;;;;11.40;2.53;;;20.50;14.60;;;;;;5032157;28;20471;-71
2024/03/31 11:59:17;;;;;;;17.27;3.77;;;20.50;14.90;;;;;;5032265;28;20433;-73
2024/03/31 12:01:43;;;;;;;10.40;2.80;;;20.60;15.80;;;;;;5031538;28;20797;-72
2024/03/31 12:04:15;;;;;;;11.23;3.30;;;20.60;14.70;;;;;;5031876;28;20410;-71
2024/03/31 12:06:42;;;;;;;11.73;1.95;;;20.70;14.70;;;;;;5031754;28;20691;-72
2024/03/31 12:09:09;;;;;;;9.35;2.50;;;20.60;14.10;;;;;;5031552;28;20380;-73
2024/03/31 12:11:35;;;;;;;8.90;2.58;;;20.80;13.00;;;;;;5031201;28;20430;-73
2024/03/31 12:14:01;;;;;;;10.57;2.70;;;21.00;12.70;;;;;;5031153;28;20478;-72
2024/03/31 12:16:27;;;;;;;9.88;2.30;;;21.60;12.50;;;;;;5031105;28;20391;-72
2024/03/31 12:18:52;;;;;;;13.27;3.13;;;22.10;11.70;;;;;;5031239;28;20693;-71
2024/03/31 12:21:23;;;;;;;10.38;3.40;;;22.60;11.50;;;;;;5030837;28;20882;-71
2024/03/31 12:23:50;;;;;;;6.07;2.00;;;22.70;11.10;;;;;;5031153;28;20402;-72
2024/03/31 12:26:20;;;;;;;12.57;3.20;;;22.50;10.40;;;;;;5030052;28;20761;-72
2024/03/31 12:28:45;;;;;;;13.20;2.40;;;22.40;11.30;;;;;;5031708;28;20885;-72
2024/03/31 12:31:12;;;;;;;7.50;2.40;;;22.10;10.90;;;;;;5031097;28;20468;-71
2024/03/31 12:33:38;;;;;;;7.07;1.90;;;22.00;10.70;;;;;;5031350;28;20866;-72